Washington, GA (30673)

11:44 PM EDT on September 02, 2014 (GMT -0400)
RAWS WASHINGTON GA US | Change Station
CLOSE
Current Station
Personal Weather Station
Location: Tignall, GA
Elevation: 616 ft
Nearby Weather Stations

Elev 616 ft 33.78 °N, 82.81 °W | Updated 42 minutes ago

Light Thunderstorms and Rain
Light Thunderstorm Rain
74 °F
Feels Like 73 °F
N
3
Wind Variable Wind from NE
Gusts 14.0 mph

Today
High -- | Low -- °F
--% Chance of Precip.
Yesterday
High -- | Low -- °F
Precip. -- in
7:05 AM 7:55 PM
First Quarter, 58% visible
Pressure 30.06 in
Visibility 10.0 miles
Clouds Clear
Heat Index 73 °F
Dew Point 70 °F
Humidity 86%
Rainfall 0.03 in
Snow Depth Not available.
UV 0 out of 12
Pollen 9.20 out of 12
Air Quality Not available.
Flu Activity Not available.
METAR KIIY 030335Z AUTO 21003KT 10SM -TSRA CLR 25/25 A3006 RMK AO2 LTG DSNT S

More Conditions Fewer Conditions

Pressure 30.06 in
Visibility 10.0 miles
Clouds Clear
Heat Index 73 °F
Dew Point 70 °F
Humidity 86%
Rainfall 0.03 in
Snow Depth Not available.
UV 0 out of 12
Pollen 9.20 out of 12
Air Quality Not available.
Flu Activity Not available.
METAR KIIY 030335Z AUTO 21003KT 10SM -TSRA CLR 25/25 A3006 RMK AO2 LTG DSNT S

More Conditions Fewer Conditions

10-Day Weather Forecast

Almanac

Astronomy

Sep. 02, 2014 Rise Set
Actual Time 7:05 AM EDT 7:55 PM EDT
Civil Twilight 6:40 AM EDT 8:20 PM EDT
Nautical Twilight 6:10 AM EDT 8:50 PM EDT
Astronomical Twilight 5:39 AM EDT 9:21 PM EDT
Moon 2:28 PM EDT (9/2) 12:16 AM EDT (9/2)
Length of Visible Light 13h 40m
Length of Day
12h 49m
Tomorrow will be 2m 1s shorter.
First Quarter, 58% of the Moon is Illuminated
Today
First Quarter
Sep 8
Full
Sep 15
Last Quarter
Sep 24
New
Oct 1
First Quarter

Today's Extremes

State Highs State Lows

Community

WunderPhotos

Upload Photos

1,749,867 photos uploaded!

WunderBlogs® & News

Nearby

Snow Depth

Station Depth Elevation
No new snow has been reported.

Earthquake Activity

City Distance Mag. Time & Date
No recent earthquake activity has been reported nearby.
Minimum magnitude displayed is 2.5.

Coastal Water Temperatures

Place Temperature
No Stations Reporting

Nearby Weather Stations